Flight Track Log - Related Links

Times and Time Zones

All times are in EDT time to prevent confusion due to time zone crossing. See the AAL309 flight status page for this flight to view local times or setup timezone preferences in your user account.


Time Position Orientation Groundspeed Altitude Reporting Facility
EDT Latitude Longitude Course Direction KTS MPH feet Rate Location/Type
Mon 02:01:32 PM 41.9177 -87.9000 339° North  Level FlightAware Approximate
Mon 02:01:56 PM 41.9500 -87.9167 177° South 176 203 1,700  Level Chicago TRACON
Mon 02:06:08 PM 41.6533 -87.8964 177° South 279 321 11,200 2,192 Climbing Chicago Center
Mon 02:07:08 PM 41.5719 -87.8900 177° South 289 333 13,100 1,600 Climbing Chicago Center
Mon 02:08:08 PM 41.4761 -87.8839 179° South 318 366 14,400 1,750 Climbing Chicago Center
Mon 02:09:08 PM 41.3717 -87.8806 185° South 355 409 16,600 2,200 Climbing Chicago Center
Mon 02:10:08 PM 41.2636 -87.8942 179° South 377 434 18,800 1,950 Climbing Chicago Center
Mon 02:11:08 PM 41.1550 -87.8911 179° South 389 448 20,500 1,700 Climbing Chicago Center
Mon 02:12:08 PM 41.0425 -87.8881 179° South 402 463 22,200 1,600 Climbing Chicago Center
Mon 02:13:08 PM 40.9278 -87.8853 179° South 408 470 23,700 1,450 Climbing Chicago Center
Mon 02:14:08 PM 40.8089 -87.8822 178° South 414 476 25,100 1,450 Climbing Chicago Center
Mon 02:15:08 PM 40.6900 -87.8767 179° South 421 484 26,600 1,300 Climbing Chicago Center
Mon 02:16:08 PM 40.5692 -87.8739 179° South 426 490 27,700 1,259 Climbing Chicago Center
Mon 02:18:52 PM 40.2436 -87.8650 178° South 444 511 31,300 1,205 Climbing Indianapolis Center
Mon 02:19:52 PM 40.1208 -87.8600 178° South 434 499 32,200 850 Climbing Indianapolis Center
Mon 02:20:52 PM 40.0022 -87.8556 177° South 434 499 33,000 400 Climbing Indianapolis Center
Mon 02:21:52 PM 39.8856 -87.8483 177° South 434 499 33,000  Level Indianapolis Center
Mon 02:22:52 PM 39.7650 -87.8411 179° South 434 499 33,000  Level Indianapolis Center
Mon 02:23:52 PM 39.6358 -87.8386 177° South 434 499 33,000  Level Indianapolis Center
Mon 02:24:52 PM 39.5172 -87.8314 177° South 429 494 33,000  Level Indianapolis Center
Mon 02:25:52 PM 39.4006 -87.8244 178° South 424 488 33,000  Level Indianapolis Center
Mon 02:26:52 PM 39.2944 -87.8208 178° South 408 470 33,000  Level Indianapolis Center
Mon 02:27:52 PM 39.1736 -87.8161 177° South 408 470 33,000  Level Indianapolis Center
Mon 02:28:52 PM 39.0569 -87.8092 178° South 413 475 33,000  Level Indianapolis Center
Mon 02:29:52 PM 38.9403 -87.8050 178° South 419 482 33,000  Level Indianapolis Center
Mon 02:30:52 PM 38.8194 -87.8006 158° South 424 488 33,000  Level Indianapolis Center
Mon 02:31:52 PM 38.7089 -87.7436 158° South 424 488 33,000  Level Indianapolis Center
Mon 02:32:52 PM 38.5961 -87.6864 160° South 424 488 33,000  Level Indianapolis Center
Mon 02:33:52 PM 38.4814 -87.6322 159° South 435 501 33,000  Level Indianapolis Center
Mon 02:34:52 PM 38.3683 -87.5781 160° South 440 506 33,000  Level Indianapolis Center
Mon 02:35:52 PM 38.2556 -87.5244 161° South 440 506 33,000  Level Indianapolis Center
Mon 02:36:52 PM 38.1403 -87.4733 159° South 440 506 33,000  Level Indianapolis Center
Mon 02:37:52 PM 38.0256 -87.4169 160° South 440 506 33,000  Level Indianapolis Center
Mon 02:38:52 PM 37.9103 -87.3636 160° South 440 506 33,000  Level Indianapolis Center
Mon 02:39:52 PM 37.7953 -87.3103 159° South 440 506 33,000  Level Indianapolis Center
Mon 02:41:44 PM 37.5942 -87.2139 159° South 456 525 33,000  Level Memphis Center
Mon 02:42:44 PM 37.4675 -87.1536 160° South 450 518 33,000  Level Memphis Center
Mon 02:43:44 PM 37.3494 -87.0983 159° South 450 518 33,000  Level Memphis Center
Mon 02:44:44 PM 37.2378 -87.0456 161° South 444 511 33,000  Level Memphis Center
Mon 02:45:44 PM 37.1197 -86.9933 159° South 444 511 33,000  Level Memphis Center
Mon 02:46:44 PM 37.0056 -86.9383 160° South 444 511 33,000  Level Memphis Center
Mon 02:47:44 PM 36.8875 -86.8836 160° South 449 517 33,000  Level Memphis Center
Mon 02:48:44 PM 36.7714 -86.8317 159° South 455 524 33,000  Level Memphis Center
Mon 02:49:44 PM 36.6550 -86.7772 159° South 449 517 33,000  Level Memphis Center
Mon 02:50:44 PM 36.5517 -86.7278 160° South 449 517 33,000  Level Memphis Center
Mon 02:51:44 PM 36.4333 -86.6736 161° South 454 522 33,000  Level Memphis Center
Mon 02:52:44 PM 36.3150 -86.6225 160° South 454 522 33,000  Level Memphis Center
Mon 02:53:44 PM 36.1839 -86.5642 160° South 454 522 33,000  Level Memphis Center
Mon 02:54:44 PM 36.0678 -86.5131 160° South 454 522 33,000  Level Memphis Center
Mon 02:55:44 PM 35.9492 -86.4597 160° South 449 517 33,000  Level Memphis Center
Mon 02:56:44 PM 35.8350 -86.4086 160° South 449 517 33,000  Level Memphis Center
Mon 02:57:44 PM 35.7167 -86.3556 160° South 449 517 33,000  Level Memphis Center
Mon 02:58:41 PM 35.6181 -86.3125 160° South 458 527 33,000  Level Atlanta Center
Mon 02:59:42 PM 35.5022 -86.2608 160° South 455 524 33,000  Level Atlanta Center
Mon 03:00:42 PM 35.3842 -86.2092 160° South 455 524 33,000  Level Atlanta Center
Mon 03:01:41 PM 35.2536 -86.1522 159° South 450 518 33,000  Level Atlanta Center
Mon 03:02:41 PM 35.1481 -86.1039 160° South 456 525 33,000  Level Atlanta Center
Mon 03:03:41 PM 35.0300 -86.0528 161° South 451 519 33,000  Level Atlanta Center
Mon 03:04:41 PM 34.8972 -85.9964 170° South 451 519 33,000  Level Atlanta Center
Mon 03:05:41 PM 34.7892 -85.9736 172° South 445 512 33,000  Level Atlanta Center
Mon 03:06:41 PM 34.6622 -85.9531 172° South 451 519 33,000  Level Atlanta Center
Mon 03:07:41 PM 34.5372 -85.9325 173° South 456 525 33,000  Level Atlanta Center
Mon 03:08:41 PM 34.3958 -85.9117 172° South 463 533 33,000  Level Atlanta Center
Mon 03:09:41 PM 34.2728 -85.8914 162° South 463 533 33,000  Level Atlanta Center
Mon 03:10:41 PM 34.1753 -85.8542 161° South 463 533 33,000  Level Atlanta Center
Mon 03:11:41 PM 34.0342 -85.7961 161° South 453 521 33,000  Level Atlanta Center
Mon 03:12:41 PM 33.9139 -85.7461 161° South 453 521 33,000  Level Atlanta Center
Mon 03:13:41 PM 33.7936 -85.6961 160° South 458 527 33,000  Level Atlanta Center
Mon 03:14:42 PM 33.6753 -85.6439 161° South 460 529 33,000  Level Atlanta Center
Mon 03:15:41 PM 33.5528 -85.5942 161° South 460 529 33,000  Level Atlanta Center
Mon 03:16:41 PM 33.4322 -85.5447 159° South 465 535 33,000  Level Atlanta Center
Mon 03:17:41 PM 33.3139 -85.4906 162° South 459 528 33,000  Level Atlanta Center
Mon 03:18:41 PM 33.1936 -85.4439 161° South 464 534 33,000  Level Atlanta Center
Mon 03:19:41 PM 33.0772 -85.3947 159° South 455 524 33,000  Level Atlanta Center
Mon 03:20:41 PM 32.9586 -85.3411 161° South 455 524 33,000  Level Atlanta Center
Mon 03:21:41 PM 32.8528 -85.2975 161° South 455 524 33,000  Level Atlanta Center
Mon 03:22:41 PM 32.7300 -85.2464 161° South 455 524 33,000  Level Atlanta Center
Mon 03:23:41 PM 32.6117 -85.1978 161° South 455 524 33,000  Level Atlanta Center
Mon 03:24:41 PM 32.4908 -85.1494 161° South 457 526 33,000  Level Atlanta Center
Mon 03:25:41 PM 32.3703 -85.1011 161° South 462 532 33,000  Level Atlanta Center
Mon 03:27:34 PM 32.1447 -85.0075 161° South 458 527 33,000  Level Jacksonville Center
Mon 03:28:34 PM 32.0222 -84.9583 161° South 463 533 33,000  Level Jacksonville Center
Mon 03:29:34 PM 31.9042 -84.9092 162° South 458 527 33,000  Level Jacksonville Center
Mon 03:30:34 PM 31.7733 -84.8597 161° South 458 527 33,000  Level Jacksonville Center
Mon 03:31:35 PM 31.6614 -84.8133 161° South 465 535 33,000  Level Jacksonville Center
Mon 03:32:34 PM 31.5450 -84.7672 161° South 460 529 33,000  Level Jacksonville Center
Mon 03:33:34 PM 31.4228 -84.7186 162° South 460 529 33,000  Level Jacksonville Center
Mon 03:34:34 PM 31.3042 -84.6725 161° South 460 529 33,000  Level Jacksonville Center
Mon 03:35:34 PM 31.1839 -84.6239 160° South 460 529 33,000  Level Jacksonville Center
Mon 03:36:34 PM 31.0633 -84.5733 162° South 460 529 33,000  Level Jacksonville Center
Mon 03:37:34 PM 30.9450 -84.5275 161° South 460 529 33,000  Level Jacksonville Center
Mon 03:38:35 PM 30.8244 -84.4794 158° South 460 529 33,000  Level Jacksonville Center
Mon 03:41:35 PM 30.4633 -84.3144 150° Southeast 454 522 33,000 -25 Level Jacksonville Center
Mon 03:42:35 PM 30.3514 -84.2406 151° Southeast 454 522 32,900  Descending Jacksonville Center
Mon 03:43:35 PM 30.2414 -84.1692 151° Southeast 454 522 33,000 50 Climbing Jacksonville Center
Mon 03:44:35 PM 30.1292 -84.0983 151° Southeast 454 522 33,000  Level Jacksonville Center
Mon 03:45:35 PM 30.0150 -84.0247 150° Southeast 459 528 33,000 -33 Level Jacksonville Center
Mon 03:47:35 PM 29.7908 -83.8786 150° Southeast 459 528 32,900  Descending Jacksonville Center
Mon 03:48:35 PM 29.6767 -83.8033 151° Southeast 459 528 33,000 50 Climbing Jacksonville Center
Mon 03:49:35 PM 29.5603 -83.7306 151° Southeast 459 528 33,000  Level Jacksonville Center
Mon 03:50:34 PM 29.4458 -83.6581 150° Southeast 459 528 33,000  Level Jacksonville Center
Mon 03:51:35 PM 29.3336 -83.5833 151° Southeast 464 534 33,000  Level Jacksonville Center
Mon 03:52:35 PM 29.2169 -83.5089 152° Southeast 469 540 33,000  Level Jacksonville Center
Mon 03:53:35 PM 29.1006 -83.4367 150° Southeast 469 540 33,000  Level Jacksonville Center
Mon 03:54:35 PM 28.9881 -83.3625 157° South 474 545 33,000  Level Jacksonville Center
Mon 03:55:35 PM 28.8672 -83.3028 164° South 469 540 33,000  Level Jacksonville Center
Mon 03:57:12 PM 28.6758 -83.2383 163° South 478 550 33,000  Level Miami Center
Mon 03:58:12 PM 28.5383 -83.1903 163° South 472 543 33,000 -750 Level Miami Center
Mon 03:59:12 PM 28.4131 -83.1456 161° South 472 543 31,500 -1,835 Descending Miami Center
Mon 04:00:13 PM 28.2900 -83.0986 162° South 472 543 29,300 -1,934 Descending Miami Center
Mon 04:01:13 PM 28.1650 -83.0517 162° South 472 543 27,600 -1,150 Descending Miami Center
Mon 04:02:13 PM 28.0378 -83.0047 157° South 472 543 27,000 -303 Descending Miami Center
Mon 04:03:12 PM 27.9192 -82.9489 158° South 472 543 27,000  Level Miami Center
Mon 04:04:12 PM 27.8003 -82.8958 149° Southeast 467 537 27,000 -300 Level Miami Center
Mon 04:05:12 PM 27.6889 -82.8194 153° Southeast 467 537 26,400 -1,300 Descending Miami Center
Mon 04:06:12 PM 27.5706 -82.7503 151° Southeast 472 543 24,400 -1,934 Descending Miami Center
Mon 04:07:13 PM 27.4628 -82.6839 152° Southeast 460 529 22,500 -1,884 Descending Miami Center
Mon 04:08:13 PM 27.3628 -82.6250 151° Southeast 450 518 20,600 -2,050 Descending Miami Center
Mon 04:09:13 PM 27.2467 -82.5539 152° Southeast 444 511 18,400 -1,950 Descending Miami Center
Mon 04:10:13 PM 27.1447 -82.4928 153° Southeast 437 503 16,700 -1,765 Descending Miami Center
Mon 04:11:12 PM 27.0447 -82.4344 151° Southeast 419 482 14,900 -1,800 Descending Miami Center
Mon 04:12:13 PM 26.9511 -82.3764 152° Southeast 406 467 13,100 -1,700 Descending Miami Center
Mon 04:13:12 PM 26.8653 -82.3258 151° Southeast 396 456 11,500 -1,050 Descending Miami Center
Mon 04:14:13 PM 26.7797 -82.2728 144° Southeast 377 434 11,000 -500 Descending Miami Center
Mon 04:15:12 PM 26.7047 -82.2114 147° Southeast 348 400 10,500 -908 Descending Miami Center
Mon 04:16:12 PM 26.6375 -82.1619 143° Southeast 317 365 9,200 -1,400 Descending Miami Center
Mon 04:17:12 PM 26.5728 -82.1078 145° Southeast 297 342 7,700 -1,488 Descending Miami Center
Mon 04:18:13 PM 26.5097 -82.0586 144° Southeast 291 335 6,200 -1,350 Descending Miami Center
Mon 04:19:12 PM 26.4489 -82.0097 128° Southeast 278 320 5,000 -605 Descending Miami Center
Mon 04:20:12 PM 26.4011 -81.9425 52° Northeast 278 320 5,000  Level Miami Center
Mon 04:27:32 PM 26.5333 -81.7500 52° Northeast  Level FlightAware Approximate

Login

Don't have an account? Register now (free) for customized features, flight alerts, and more!